Time;durP1;ratioP1;P1;durP2;ratioP2;P2;SDS_P1;SDS_P2;PMS_P1;PMS_P2;Temp;Humidity;BMP_temperature;BMP_pressure;BME280_temperature;BME280_humidity;BME280_pressure;Samples;Min_cycle;Max_cycle;Signal;HPM_P1;HPM_P2
2021/05/13 00:00:22;;;;;;;;;;;;;;;-142.75;66.29;77446.34;5093907;28;20408;-79
2021/05/13 00:02:47;;;;;;;;;;;;;;;-142.75;66.56;77444.38;5093501;28;19939;-80
2021/05/13 00:05:13;;;;;;;;;;;;;;;-142.75;67.05;77448.34;5083154;28;20390;-81
2021/05/13 00:07:38;;;;;;;;;;;;;;;-142.75;66.70;77454.25;5075234;28;19975;-80
2021/05/13 00:10:05;;;;;;;;;;;;;;;-142.75;66.61;77448.34;5092892;28;19968;-82
2021/05/13 00:13:06;;;;;;;;;;;;;;;-142.75;66.95;77450.28;5082220;28;19931;-81
2021/05/13 00:15:23;;;;;;;;;;;;;;;-142.75;67.29;77454.25;5090740;28;20426;-80
2021/05/13 00:17:51;;;;;;;;;;;;;;;-142.75;66.72;77468.03;5072958;28;20007;-82
2021/05/13 00:20:19;;;;;;;;;;;;;;;-142.75;66.59;77470.00;5089632;28;20396;-80
2021/05/13 00:22:44;;;;;;;;;;;;;;;-142.75;66.24;77483.78;5077377;28;19939;-81
2021/05/13 00:25:09;;;;;;;;;;;;;;;-142.75;66.20;77479.84;5072255;28;20382;-80
2021/05/13 00:27:35;;;;;;;;;;;;;;;-142.75;66.65;77460.13;5075578;28;19916;-80
2021/05/13 00:30:00;;;;;;;;;;;;;;;-142.75;66.50;77479.84;5082969;28;19916;-81
2021/05/13 00:32:25;;;;;;;;;;;;;;;-142.75;66.38;77491.66;5071907;28;19917;-82
2021/05/13 00:34:50;;;;;;;;;;;;;;;-142.75;66.24;77503.47;5090505;28;20002;-80
2021/05/13 00:37:15;;;;;;;;;;;;;;;-142.75;66.72;77515.28;5093806;28;19916;-81
2021/05/13 00:39:41;;;;;;;;;;;;;;;-142.75;66.92;77513.31;5089162;28;19916;-81
2021/05/13 00:42:06;;;;;;;;;;;;;;;-142.75;67.10;77523.16;5072647;28;19924;-81
2021/05/13 00:44:35;;;;;;;;;;;;;;;-142.75;66.62;77521.19;5073468;28;19928;-80
2021/05/13 00:47:00;;;;;;;;;;;;;;;-142.75;66.53;77519.22;5079997;28;19922;-82
2021/05/13 00:49:26;;;;;;;;;;;;;;;-142.75;66.69;77509.38;5093183;28;19915;-81
2021/05/13 00:51:51;;;;;;;;;;;;;;;-142.75;66.24;77505.44;5090602;28;19923;-81
2021/05/13 00:54:19;;;;;;;;;;;;;;;-142.75;66.92;77483.78;5082406;28;20053;-81
2021/05/13 00:56:44;;;;;;;;;;;;;;;-142.75;66.15;77499.53;5091880;28;20398;-79
2021/05/13 00:59:11;;;;;;;;;;;;;;;-142.75;65.94;77503.47;5071797;28;19998;-81
2021/05/13 01:01:48;;;;;;;;;;;;;;;-142.75;66.23;77505.44;5072886;28;20074;-81
2021/05/13 01:04:17;;;;;;;;;;;;;;;-142.75;66.33;77505.44;5089892;28;19924;-81
2021/05/13 01:06:43;;;;;;;;;;;;;;;-142.75;66.61;77503.47;5086271;28;19920;-80
2021/05/13 01:09:10;;;;;;;;;;;;;;;-142.75;66.20;77531.03;5093142;28;20300;-81
2021/05/13 01:11:37;;;;;;;;;;;;;;;-142.75;66.25;77540.88;5081635;28;19916;-81
2021/05/13 01:14:14;;;;;;;;;;;;;;;-142.75;66.55;77552.69;5073886;28;19916;-81
2021/05/13 01:16:50;;;;;;;;;;;;;;;-142.75;66.48;77554.66;5073370;28;19924;-80
2021/05/13 01:19:17;;;;;;;;;;;;;;;-142.75;66.52;77550.72;5072822;28;19982;-80
2021/05/13 01:21:42;;;;;;;;;;;;;;;-142.75;66.64;77542.84;5085300;28;19916;-81
2021/05/13 01:26:46;;;;;;;;;;;;;;;-142.75;67.07;77519.22;5687871;22;19924;-80
2021/05/13 01:29:12;;;;;;;;;;;;;;;-142.75;66.73;77534.97;5071632;28;19921;-81
2021/05/13 01:31:37;;;;;;;;;;;;;;;-142.75;66.90;77542.84;5083893;28;19958;-80
2021/05/13 01:34:04;;;;;;;;;;;;;;;-142.75;67.11;77536.94;5079640;28;20388;-79
2021/05/13 01:36:29;;;;;;;;;;;;;;;-142.75;67.74;77513.31;5081761;28;19951;-81
2021/05/13 01:38:56;;;;;;;;;;;;;;;-142.75;67.53;77511.34;5081936;28;19931;-80
2021/05/13 01:41:21;;;;;;;;;;;;;;;-142.75;67.53;77534.97;5110119;22;19924;-80
2021/05/13 01:43:46;;;;;;;;;;;;;;;-142.75;67.12;77548.75;5083006;28;19919;-82
2021/05/13 01:46:11;;;;;;;;;;;;;;;-142.75;67.26;77546.78;5063720;28;19931;-80
2021/05/13 01:48:37;;;;;;;;;;;;;;;-142.75;67.19;77548.75;5069321;28;19924;-82
2021/05/13 01:51:02;;;;;;;;;;;;;;;-142.75;67.56;77525.13;5064237;28;19916;-82
2021/05/13 01:53:27;;;;;;;;;;;;;;;-142.75;67.42;77550.72;5082463;28;19920;-81
2021/05/13 01:55:52;;;;;;;;;;;;;;;-142.75;67.11;77554.66;5082453;28;19930;-80
2021/05/13 01:58:18;;;;;;;;;;;;;;;-142.75;66.85;77558.59;5084813;28;19916;-82
2021/05/13 02:00:46;;;;;;;;;;;;;;;-142.75;67.10;77566.47;5081987;28;19948;-81
2021/05/13 02:03:12;;;;;;;;;;;;;;;-142.75;67.14;77566.47;5083575;28;20388;-82
2021/05/13 02:05:37;;;;;;;;;;;;;;;-142.75;67.19;77570.41;5085371;28;20011;-82
2021/05/13 02:08:03;;;;;;;;;;;;;;;-142.75;67.14;77574.34;5077411;28;20274;-82
2021/05/13 02:10:28;;;;;;;;;;;;;;;-142.75;67.38;77582.22;5078876;28;20005;-82
2021/05/13 02:12:56;;;;;;;;;;;;;;;-142.75;67.32;77588.13;5080434;28;20299;-80
2021/05/13 02:15:21;;;;;;;;;;;;;;;-142.75;67.19;77594.03;5083617;28;20007;-82
2021/05/13 02:17:46;;;;;;;;;;;;;;;-142.75;67.21;77601.91;5083257;28;19956;-82
2021/05/13 02:20:13;;;;;;;;;;;;;;;-142.75;67.31;77601.91;5082967;28;19916;-82
2021/05/13 02:22:38;;;;;;;;;;;;;;;-142.75;67.35;77601.91;5081098;28;20460;-82
2021/05/13 02:25:08;;;;;;;;;;;;;;;-142.75;67.47;77594.03;5081522;28;19998;-82
2021/05/13 02:27:33;;;;;;;;;;;;;;;-142.75;67.63;77607.81;5084639;28;19920;-82
2021/05/13 02:29:58;;;;;;;;;;;;;;;-142.75;67.50;77609.78;5078982;28;19915;-83
2021/05/13 02:32:24;;;;;;;;;;;;;;;-142.75;67.65;77609.78;5087421;28;20266;-82
2021/05/13 02:34:49;;;;;;;;;;;;;;;-142.75;67.52;77611.75;5082097;28;19958;-83
2021/05/13 02:37:14;;;;;;;;;;;;;;;-142.75;67.59;77611.75;5085119;28;19916;-83
2021/05/13 02:39:39;;;;;;;;;;;;;;;-142.75;67.82;77609.78;5087093;28;19920;-82
2021/05/13 02:42:04;;;;;;;;;;;;;;;-142.75;67.89;77611.75;5093414;28;20331;-84
2021/05/13 02:44:30;;;;;;;;;;;;;;;-142.75;69.16;77605.84;5095297;28;19943;-84
2021/05/13 02:46:55;;;;;;;;;;;;;;;-142.75;68.85;77603.88;5090041;28;19920;-84
2021/05/13 02:49:20;;;;;;;;;;;;;;;-142.75;68.64;77607.81;5096206;28;20399;-83
2021/05/13 02:51:45;;;;;;;;;;;;;;;-142.75;68.90;77603.88;5094183;28;19939;-84
2021/05/13 02:54:11;;;;;;;;;;;;;;;-142.75;68.75;77596.00;5095137;28;19939;-84
2021/05/13 02:56:36;;;;;;;;;;;;;;;-142.75;68.68;77601.91;5095979;28;19941;-83
2021/05/13 02:59:01;;;;;;;;;;;;;;;-142.75;68.68;77603.88;5095915;28;19916;-84
2021/05/13 03:01:29;;;;;;;;;;;;;;;-142.75;68.71;77601.91;5096411;28;19917;-84
2021/05/13 03:03:55;;;;;;;;;;;;;;;-142.75;68.52;77605.84;5097673;28;20408;-84
2021/05/13 03:06:21;;;;;;;;;;;;;;;-142.75;68.64;77601.91;5097519;28;19936;-84
2021/05/13 03:08:50;;;;;;;;;;;;;;;-142.75;68.28;77601.91;5090932;28;19927;-81
2021/05/13 03:11:15;;;;;;;;;;;;;;;-142.75;68.40;77601.91;5096596;28;19923;-83
2021/05/13 03:13:40;;;;;;;;;;;;;;;-142.75;68.02;77607.81;5092673;28;20011;-84
2021/05/13 03:16:05;;;;;;;;;;;;;;;-142.75;68.14;77603.88;5101239;28;19916;-83
2021/05/13 03:18:32;;;;;;;;;;;;;;;-142.75;68.34;77594.03;5091874;28;19924;-83
2021/05/13 03:21:15;;;;;;;;;;;;;;;-142.75;68.10;77596.00;5091501;28;20616;-83
2021/05/13 03:23:54;;;;;;;;;;;;;;;-142.75;68.00;77601.91;5100578;28;19924;-82
2021/05/13 03:26:30;;;;;;;;;;;;;;;-142.75;67.94;77599.94;5093789;28;19916;-81
2021/05/13 03:28:55;;;;;;;;;;;;;;;-142.75;67.76;77601.91;5090647;28;19974;-82
2021/05/13 03:31:20;;;;;;;;;;;;;;;-142.75;67.87;77605.84;5096302;28;19971;-82
2021/05/13 03:33:45;;;;;;;;;;;;;;;-142.75;67.84;77603.88;5089453;28;19916;-83
2021/05/13 03:36:11;;;;;;;;;;;;;;;-142.75;67.67;77605.84;5091576;28;19923;-83
2021/05/13 03:38:36;;;;;;;;;;;;;;;-142.75;67.92;77609.78;5093401;28;19916;-81
2021/05/13 03:41:01;;;;;;;;;;;;;;;-142.75;67.80;77609.78;5098091;28;20288;-82
2021/05/13 03:43:26;;;;;;;;;;;;;;;-142.75;67.65;77611.75;5091700;28;19924;-82
2021/05/13 03:45:51;;;;;;;;;;;;;;;-142.75;68.23;77584.19;5090305;28;19917;-81
2021/05/13 03:48:17;;;;;;;;;;;;;;;-142.75;68.48;77570.41;5091302;28;19935;-81
2021/05/13 03:50:42;;;;;;;;;;;;;;;-142.75;67.96;77594.03;5091748;28;19920;-79
2021/05/13 03:53:07;;;;;;;;;;;;;;;-142.75;67.77;77609.78;5090751;28;19916;-79
2021/05/13 03:55:33;;;;;;;;;;;;;;;-142.75;67.84;77609.78;5086759;28;19916;-81
2021/05/13 03:58:00;;;;;;;;;;;;;;;-142.75;68.35;77596.00;5094361;28;19916;-82
2021/05/13 04:00:32;;;;;;;;;;;;;;;-142.75;68.30;77596.00;5087570;28;20288;-78
2021/05/13 04:02:57;;;;;;;;;;;;;;;-142.75;68.24;77601.91;5090729;28;19939;-80
2021/05/13 04:05:23;;;;;;;;;;;;;;;-142.75;68.53;77590.09;5088851;28;19916;-80
2021/05/13 04:07:49;;;;;;;;;;;;;;;-142.75;68.70;77588.13;5088375;28;19971;-81
2021/05/13 04:10:14;;;;;;;;;;;;;;;-142.75;68.74;77586.16;5089546;28;19916;-81
2021/05/13 04:12:40;;;;;;;;;;;;;;;-142.75;68.78;77584.19;5087735;28;19920;-80
2021/05/13 04:15:09;;;;;;;;;;;;;;;-142.75;68.81;77588.13;5091369;28;19916;-79
2021/05/13 04:17:35;;;;;;;;;;;;;;;-142.75;68.87;77586.16;5087541;28;19916;-79
2021/05/13 04:20:00;;;;;;;;;;;;;;;-142.75;69.13;77574.34;5086575;28;19920;-81
2021/05/13 04:22:25;;;;;;;;;;;;;;;-142.75;69.34;77566.47;5092326;28;19924;-81
2021/05/13 04:24:50;;;;;;;;;;;;;;;-142.75;69.17;77558.59;5086427;28;19923;-81
2021/05/13 04:27:16;;;;;;;;;;;;;;;-142.75;68.70;77554.66;5089596;28;19928;-84
2021/05/13 04:29:41;;;;;;;;;;;;;;;-142.75;68.55;77560.56;5090599;28;19916;-77
2021/05/13 04:32:06;;;;;;;;;;;;;;;-142.75;68.30;77554.66;5087252;28;19924;-82
2021/05/13 04:34:31;;;;;;;;;;;;;;;-142.75;68.58;77538.91;5087324;28;19917;-81
2021/05/13 04:36:57;;;;;;;;;;;;;;;-142.75;69.20;77519.22;5087981;28;19938;-80
2021/05/13 04:39:22;;;;;;;;;;;;;;;-142.75;70.15;77479.84;5087953;28;19938;-80
2021/05/13 04:41:47;;;;;;;;;;;;;;;-142.75;70.28;77479.84;5085519;28;19916;-79
2021/05/13 04:44:12;;;;;;;;;;;;;;;-142.75;69.90;77468.03;5087090;28;19920;-81
2021/05/13 04:46:38;;;;;;;;;;;;;;;-142.75;69.61;77475.91;5087438;28;19924;-80
2021/05/13 04:51:35;;;;;;;;;;;;;;;-142.75;69.20;77462.13;5090713;28;20341;-79
2021/05/13 04:54:00;;;;;;;;;;;;;;;-142.75;69.31;77452.25;5087422;28;20007;-80
2021/05/13 04:56:26;;;;;;;;;;;;;;;-142.75;69.33;77436.50;5090331;28;19938;-80
2021/05/13 04:58:51;;;;;;;;;;;;;;;-142.75;68.95;77436.50;5091021;28;20361;-80
2021/05/13 05:01:17;;;;;;;;;;;;;;;-142.75;69.04;77428.63;5092288;28;19916;-80
2021/05/13 05:03:42;;;;;;;;;;;;;;;-142.75;69.00;77422.72;5088613;28;20399;-81
2021/05/13 05:06:10;;;;;;;;;;;;;;;-142.75;69.08;77405.00;5087909;28;19916;-79
2021/05/13 05:08:35;;;;;;;;;;;;;;;-142.75;68.86;77373.50;5089188;28;19920;-80
2021/05/13 05:11:00;;;;;;;;;;;;;;;-142.75;68.27;77373.50;5089535;28;19944;-80
2021/05/13 05:13:25;;;;;;;;;;;;;;;-142.75;68.26;77338.06;5090629;28;19916;-80
2021/05/13 05:15:51;;;;;;;;;;;;;;;-142.75;68.15;77310.50;5087895;28;19917;-79
2021/05/13 05:18:17;;;;;;;;;;;;;;;-142.75;67.95;77288.84;5090702;28;19937;-78
2021/05/13 05:20:50;;;;;;;;;;;;;;;-142.75;67.50;77251.44;5085965;28;19917;-80
2021/05/13 05:23:16;;;;;;;;;;;;;;;-142.75;67.14;77206.16;5087335;28;19948;-78
2021/05/13 05:25:41;;;;;;;;;;;;;;;-142.75;66.63;77172.69;5087284;28;19920;-81
2021/05/13 05:28:07;;;;;;;;;;;;;;;-142.75;66.28;77127.41;5089015;28;20295;-80
2021/05/13 05:30:33;;;;;;;;;;;;;;;-142.75;65.25;77097.88;5088595;28;19931;-80
2021/05/13 05:33:06;;;;;;;;;;;;;;;-142.75;65.10;77107.72;5087578;28;20326;-80
2021/05/13 05:35:32;;;;;;;;;;;;;;;-142.75;66.56;77121.50;5087915;28;19955;-81
2021/05/13 05:37:57;;;;;;;;;;;;;;;-142.75;66.06;77058.50;5090055;28;19963;-81
2021/05/13 05:40:23;;;;;;;;;;;;;;;-142.75;64.59;77023.06;5090883;28;19917;-81
2021/05/13 05:42:54;;;;;;;;;;;;;;;-142.75;63.97;76997.47;5088212;28;19932;-82
2021/05/13 05:45:21;;;;;;;;;;;;;;;-142.75;63.94;76991.56;5087316;28;19945;-79
2021/05/13 05:47:47;;;;;;;;;;;;;;;-142.75;62.70;76964.00;5087968;28;20409;-80
2021/05/13 05:50:14;;;;;;;;;;;;;;;-142.75;63.76;76979.75;5089532;28;19917;-80
2021/05/13 05:52:44;;;;;;;;;;;;;;;-142.75;63.89;76975.81;5087477;28;19923;-82
2021/05/13 05:55:10;;;;;;;;;;;;;;;-142.75;64.50;76940.38;5085557;28;19916;-81
2021/05/13 05:57:38;;;;;;;;;;;;;;;-142.75;62.96;76924.63;5086527;28;19943;-81
2021/05/13 06:00:09;;;;;;;;;;;;;;;-142.75;63.01;76928.56;5085039;28;20335;-80
2021/05/13 06:02:35;;;;;;;;;;;;;;;-142.75;63.39;76865.56;5083699;28;19916;-80
2021/05/13 06:05:01;;;;;;;;;;;;;;;-142.75;61.21;76818.31;5084865;28;19916;-79
2021/05/13 06:07:29;;;;;;;;;;;;;;;-142.75;61.34;76794.69;5086387;28;19920;-80
2021/05/13 06:09:56;;;;;;;;;;;;;;;-142.75;60.59;76808.50;5088712;28;19916;-78
2021/05/13 06:12:21;;;;;;;;;;;;;;;-142.75;60.51;76802.56;5085068;28;19949;-82
2021/05/13 06:14:46;;;;;;;;;;;;;;;-142.75;60.01;76717.94;5087586;28;19916;-77
2021/05/13 06:17:12;;;;;;;;;;;;;;;-142.75;58.94;76715.97;5087311;28;19924;-80
2021/05/13 06:19:37;;;;;;;;;;;;;;;-142.75;59.29;76688.41;5083240;28;19916;-78
2021/05/13 06:22:07;;;;;;;;;;;;;;;-142.75;59.08;76603.75;5076991;23;20423;-77
2021/05/13 06:24:33;;;;;;;;;;;;;;;-142.75;58.43;76652.97;5047649;28;19946;-78
2021/05/13 06:27:03;;;;;;;;;;;;;;;-142.75;57.20;76651.00;5047899;28;20381;-78
2021/05/13 06:29:31;;;;;;;;;;;;;;;-142.75;58.01;76609.66;5050215;28;19939;-78
2021/05/13 06:31:56;;;;;;;;;;;;;;;-142.75;56.33;76580.13;5035632;28;19917;-79
2021/05/13 06:34:24;;;;;;;;;;;;;;;-142.75;56.91;76562.41;5027101;28;20373;-78
2021/05/13 06:36:50;;;;;;;;;;;;;;;-142.75;56.08;76527.00;5028138;28;20015;-79
2021/05/13 06:39:18;;;;;;;;;;;;;;;-142.75;55.63;76493.53;5027104;28;20361;-77
2021/05/13 06:41:44;;;;;;;;;;;;;;;-142.75;55.68;76499.44;5028122;28;20386;-79
2021/05/13 06:44:09;;;;;;;;;;;;;;;-142.75;55.19;76483.69;5028415;28;19932;-78
2021/05/13 06:46:35;;;;;;;;;;;;;;;-142.75;54.30;76452.19;5057681;28;19925;-78
2021/05/13 06:49:00;;;;;;;;;;;;;;;-142.75;53.64;76367.53;5026660;28;19917;-80
2021/05/13 06:51:25;;;;;;;;;;;;;;;-142.75;52.92;76338.03;5025001;28;20275;-79
2021/05/13 06:53:50;;;;;;;;;;;;;;;-142.75;53.38;76353.78;5024235;28;19917;-77
2021/05/13 06:56:16;;;;;;;;;;;;;;;-142.75;53.27;76306.53;5024061;28;19963;-77
2021/05/13 06:58:41;;;;;;;;;;;;;;;-142.75;52.83;76322.28;5040586;28;19963;-79
2021/05/13 07:01:07;;;;;;;;;;;;;;;-142.75;53.48;76280.94;5026263;28;19917;-80
2021/05/13 07:03:32;;;;;;;;;;;;;;;-142.75;52.04;76247.47;5025080;28;19925;-80
2021/05/13 07:05:57;;;;;;;;;;;;;;;-142.75;51.06;76182.53;5022683;28;20433;-80
2021/05/13 07:08:23;;;;;;;;;;;;;;;-142.75;50.81;76093.94;5024929;28;19921;-81
2021/05/13 07:10:48;;;;;;;;;;;;;;;-142.75;49.64;76050.66;5021866;28;20032;-81
2021/05/13 07:13:13;;;;;;;;;;;;;;;-142.75;49.83;76149.06;5046154;28;19936;-81
2021/05/13 07:15:38;;;;;;;;;;;;;;;-142.75;49.92;76182.53;5025636;28;19924;-81
2021/05/13 07:18:03;;;;;;;;;;;;;;;-142.75;51.52;76200.25;5041736;28;19917;-81
2021/05/13 07:20:30;;;;;;;;;;;;;;;-142.75;48.56;75979.78;5021891;28;19917;-79
2021/05/13 07:22:57;;;;;;;;;;;;;;;-142.75;47.39;75960.13;5024240;28;19924;-81
2021/05/13 07:25:22;;;;;;;;;;;;;;;-142.75;47.23;75960.13;5026218;28;19939;-81
2021/05/13 07:27:47;;;;;;;;;;;;;;;-142.75;46.64;76003.41;5044234;28;19917;-82
2021/05/13 07:30:13;;;;;;;;;;;;;;;-142.75;45.81;75966.00;5024345;28;20458;-81
2021/05/13 07:32:39;;;;;;;;;;;;;;;-142.75;47.96;76017.19;5020427;28;19917;-80
2021/05/13 07:35:05;;;;;;;;;;;;;;;-142.75;46.53;75973.88;5028336;28;19966;-82
2021/05/13 07:37:30;;;;;;;;;;;;;;;-142.75;47.68;76007.34;5029013;28;20293;-82
2021/05/13 07:39:55;;;;;;;;;;;;;;;-142.75;45.87;75999.47;5024834;28;20007;-80
2021/05/13 07:42:20;;;;;;;;;;;;;;;-142.75;46.63;76030.97;5022259;28;19917;-81
2021/05/13 07:44:45;;;;;;;;;;;;;;;-142.75;46.85;75966.00;5042074;28;19921;-80
2021/05/13 07:47:11;;;;;;;;;;;;;;;-142.75;46.30;75891.22;5042743;28;19925;-80
2021/05/13 07:49:36;;;;;;;;;;;;;;;-142.75;45.62;75869.56;5045087;28;19916;-80
2021/05/13 07:52:02;;;;;;;;;;;;;;;-142.75;44.07;75826.28;5023807;28;19923;-80
2021/05/13 07:54:28;;;;;;;;;;;;;;;-142.75;45.56;75867.59;5030951;28;19952;-80
2021/05/13 07:56:53;;;;;;;;;;;;;;;-142.75;44.99;75869.56;5026955;28;19921;-80
2021/05/13 07:59:19;;;;;;;;;;;;;;;-142.75;45.40;75838.09;5028878;28;19953;-79
2021/05/13 08:01:44;;;;;;;;;;;;;;;-142.75;44.15;75678.66;5035661;28;19916;-80
2021/05/13 08:04:10;;;;;;;;;;;;;;;-142.75;42.07;75497.63;5034820;28;19927;-80
2021/05/13 08:06:35;;;;;;;;;;;;;;;-142.75;41.70;75633.41;5028144;28;19921;-79
2021/05/13 08:09:00;;;;;;;;;;;;;;;-142.75;41.94;75605.84;5102032;22;19994;-78
2021/05/13 08:11:25;;;;;;;;;;;;;;;-142.75;40.86;75529.09;5080746;28;19904;-78
2021/05/13 08:13:50;;;;;;;;;;;;;;;-142.75;40.61;75468.09;5078632;28;19916;-78
2021/05/13 08:16:16;;;;;;;;;;;;;;;-142.75;39.45;75527.13;5070167;28;19916;-77
2021/05/13 08:18:41;;;;;;;;;;;;;;;-142.75;41.25;75483.84;5095331;28;19922;-77
2021/05/13 08:21:06;;;;;;;;;;;;;;;-142.75;40.15;75330.34;5101385;28;19956;-78
2021/05/13 08:23:31;;;;;;;;;;;;;;;-142.75;37.74;75285.09;5077363;28;20003;-78
2021/05/13 08:25:56;;;;;;;;;;;;;;;-142.75;37.81;75208.34;5074752;28;19927;-76
2021/05/13 08:28:22;;;;;;;;;;;;;;;-142.75;38.61;75314.59;5075255;28;19917;-77
2021/05/13 08:30:47;;;;;;;;;;;;;;;-142.75;38.27;75379.53;5078378;28;19923;-77
2021/05/13 08:33:12;;;;;;;;;;;;;;;-142.75;37.98;75291.00;5075933;28;20143;-77
2021/05/13 08:35:37;;;;;;;;;;;;;;;-142.75;37.01;75167.00;5074462;28;19916;-76
2021/05/13 08:38:02;;;;;;;;;;;;;;;-142.75;36.22;75263.44;5086072;28;19916;-77
2021/05/13 08:40:28;;;;;;;;;;;;;;;-142.75;36.76;75289.03;5094945;28;19916;-76
2021/05/13 08:42:53;;;;;;;;;;;;;;;-142.75;37.22;75377.56;5094748;28;19923;-76
2021/05/13 08:45:18;;;;;;;;;;;;;;;-142.75;35.35;75306.72;5094274;28;20385;-74
2021/05/13 08:47:47;;;;;;;;;;;;;;;-142.75;36.64;75139.47;5094514;28;20014;-76
2021/05/13 08:50:15;;;;;;;;;;;;;;;-142.75;35.33;75106.00;5094581;28;19991;-76
2021/05/13 08:52:41;;;;;;;;;;;;;;;-142.75;36.58;75100.09;5094485;28;19973;-75
2021/05/13 08:55:06;;;;;;;;;;;;;;;-142.75;34.41;75076.50;5093210;28;19916;-76
2021/05/13 08:57:32;;;;;;;;;;;;;;;-142.75;35.60;75078.47;5093052;28;20396;-77
2021/05/13 08:59:57;;;;;;;;;;;;;;;-142.75;34.70;75135.53;5093086;28;19924;-76
2021/05/13 09:02:23;;;;;;;;;;;;;;;-142.75;35.53;75011.56;5076346;28;20019;-76
2021/05/13 09:04:51;;;;;;;;;;;;;;;-142.75;32.43;74934.81;5073722;28;20535;-75
2021/05/13 09:07:27;;;;;;;;;;;;;;;-142.75;35.12;75125.69;5072503;28;20422;-75
2021/05/13 09:09:56;;;;;;;;;;;;;;;-142.75;34.68;75285.09;5073881;28;19923;-75
2021/05/13 09:12:21;;;;;;;;;;;;;;;-142.75;36.91;75438.56;5072782;28;19921;-74
2021/05/13 09:14:55;;;;;;;;;;;;;;;-142.75;36.45;75420.88;5072786;28;19938;-76
2021/05/13 09:17:23;;;;;;;;;;;;;;;-142.75;37.12;75523.19;5072610;28;20015;-74
2021/05/13 09:19:48;;;;;;;;;;;;;;;-142.75;37.81;75527.13;5071405;28;19916;-75
2021/05/13 09:22:19;;;;;;;;;;;;;;;-142.75;38.94;75442.50;5073924;28;19920;-72
2021/05/13 09:24:44;;;;;;;;;;;;;;;-142.75;38.93;75405.13;5071143;28;20706;-74
2021/05/13 09:27:15;;;;;;;;;;;;;;;-142.75;35.93;75493.69;5073447;28;20004;-74
2021/05/13 09:29:40;;;;;;;;;;;;;;;-142.75;38.18;75521.22;5073579;28;19925;-75
2021/05/13 09:32:23;;;;;;;;;;;;;;;-142.75;39.45;75436.59;5072875;28;20340;-75
2021/05/13 09:34:48;;;;;;;;;;;;;;;-142.75;37.00;75420.88;5072311;28;20312;-75
2021/05/13 09:37:14;;;;;;;;;;;;;;;-142.75;35.70;75460.22;5073045;28;19920;-75
2021/05/13 09:39:49;;;;;;;;;;;;;;;-142.75;36.71;75588.16;5085711;28;19920;-75
2021/05/13 09:42:18;;;;;;;;;;;;;;;-142.75;38.59;75670.81;5093921;28;19920;-74
2021/05/13 09:44:44;;;;;;;;;;;;;;;-142.75;39.83;75485.81;5092165;28;19972;-75
2021/05/13 09:47:12;;;;;;;;;;;;;;;-142.75;37.72;75363.78;5093338;28;20011;-75
2021/05/13 09:49:51;;;;;;;;;;;;;;;-142.75;36.89;75414.97;5093207;28;19916;-75
2021/05/13 09:52:34;;;;;;;;;;;;;;;-142.75;38.54;75542.88;5092088;28;19996;-75
2021/05/13 09:55:14;;;;;;;;;;;;;;;-142.75;37.16;75535.00;5093507;28;20412;-75
2021/05/13 09:57:41;;;;;;;;;;;;;;;-142.75;38.31;75637.34;5093121;28;20377;-75
2021/05/13 10:00:07;;;;;;;;;;;;;;;-142.75;38.61;75641.28;5093143;28;20019;-75
2021/05/13 10:02:32;;;;;;;;;;;;;;;-142.75;38.85;75678.66;5091917;28;19916;-74
2021/05/13 10:04:58;;;;;;;;;;;;;;;-142.75;40.07;75619.63;5091418;28;20435;-75
2021/05/13 10:07:23;;;;;;;;;;;;;;;-142.75;39.57;75647.19;5092890;28;19961;-75
2021/05/13 10:09:48;;;;;;;;;;;;;;;-142.75;40.57;75531.06;5091794;28;19924;-75
2021/05/13 10:12:14;;;;;;;;;;;;;;;-142.75;37.89;75306.72;5091748;28;19943;-75
2021/05/13 10:14:40;;;;;;;;;;;;;;;-142.75;35.34;75342.16;5093196;28;19926;-75
2021/05/13 10:17:05;;;;;;;;;;;;;;;-142.75;37.11;75353.97;5091419;28;19922;-74
2021/05/13 10:19:43;;;;;;;;;;;;;;;-142.75;37.41;75316.56;5088280;28;20270;-75
2021/05/13 10:22:12;;;;;;;;;;;;;;;-142.75;36.56;75318.53;5072883;28;19968;-76
2021/05/13 10:24:37;;;;;;;;;;;;;;;-142.75;35.94;75186.69;5072435;28;20007;-73
2021/05/13 10:27:14;;;;;;;;;;;;;;;-142.75;32.11;75121.75;5088421;28;20003;-75
2021/05/13 10:29:41;;;;;;;;;;;;;;;-142.75;34.15;75168.97;5073756;28;19923;-75
2021/05/13 10:32:16;;;;;;;;;;;;;;;-142.75;35.13;75155.22;5073920;28;19959;-76
2021/05/13 10:34:41;;;;;;;;;;;;;;;-142.75;32.44;75228.00;5071031;28;19916;-76
2021/05/13 10:37:13;;;;;;;;;;;;;;;-142.75;34.21;75100.09;5089253;28;19916;-75
2021/05/13 10:39:57;;;;;;;;;;;;;;;-142.75;34.62;75300.81;5092462;28;19916;-75
2021/05/13 10:42:29;;;;;;;;;;;;;;;-142.75;34.69;75440.53;5079254;28;20396;-75
2021/05/13 10:44:55;;;;;;;;;;;;;;;-142.75;36.23;75501.56;5071039;28;20384;-74
2021/05/13 10:47:30;;;;;;;;;;;;;;;-142.75;36.64;75511.41;5071921;28;19930;-76
2021/05/13 10:49:55;;;;;;;;;;;;;;;-142.75;35.36;75428.75;5072714;28;19920;-74
2021/05/13 10:52:34;;;;;;;;;;;;;;;-142.75;36.70;75385.44;5072670;28;20011;-75
2021/05/13 10:55:00;;;;;;;;;;;;;;;-142.75;33.37;75310.66;5072175;28;20376;-75
2021/05/13 10:57:26;;;;;;;;;;;;;;;-142.75;34.86;75389.38;5070640;28;20403;-75
2021/05/13 11:00:09;;;;;;;;;;;;;;;-142.75;38.91;75381.50;5075921;28;19951;-76
2021/05/13 11:02:42;;;;;;;;;;;;;;;-142.75;34.82;75192.59;5091295;28;20006;-75
2021/05/13 11:05:26;;;;;;;;;;;;;;;-142.75;34.86;75314.59;5090258;28;20498;-75
2021/05/13 11:07:51;;;;;;;;;;;;;;;-142.75;34.78;75259.50;5091941;28;19939;-75
2021/05/13 11:10:16;;;;;;;;;;;;;;;-142.75;33.86;75275.25;5091837;28;20422;-76
2021/05/13 11:12:42;;;;;;;;;;;;;;;-142.75;34.51;75161.13;5091999;28;20305;-75
2021/05/13 11:20:23;;;;;;;;;;;;;;;-142.75;35.39;75424.81;5091937;28;19916;-76
2021/05/13 11:22:52;;;;;;;;;;;;;;;-142.75;35.45;75334.28;5091893;28;19916;-74
2021/05/13 11:25:17;;;;;;;;;;;;;;;-142.75;33.14;75145.38;5091483;28;19989;-75
2021/05/13 11:27:42;;;;;;;;;;;;;;;-142.75;34.16;75167.00;5091334;28;20384;-75
2021/05/13 11:30:08;;;;;;;;;;;;;;;-142.75;33.97;75393.31;5091953;28;19930;-75
2021/05/13 11:32:34;;;;;;;;;;;;;;;-142.75;33.98;75344.13;5091585;28;19923;-74
2021/05/13 11:35:00;;;;;;;;;;;;;;;-142.75;34.55;75454.31;5091602;28;20010;-76
2021/05/13 11:37:34;;;;;;;;;;;;;;;-142.75;35.64;75525.16;5091207;28;20016;-75
2021/05/13 11:40:16;;;;;;;;;;;;;;;-142.75;37.54;75529.09;5090004;28;19923;-75
2021/05/13 11:42:41;;;;;;;;;;;;;;;-142.75;36.55;75454.31;5091677;28;19986;-75
2021/05/13 11:45:13;;;;;;;;;;;;;;;-142.75;35.87;75485.81;5091675;28;20385;-75
2021/05/13 11:47:39;;;;;;;;;;;;;;;-142.75;34.58;75391.34;5091154;28;19939;-76
2021/05/13 11:50:04;;;;;;;;;;;;;;;-142.75;36.31;75334.28;5090982;28;19970;-76
2021/05/13 11:52:29;;;;;;;;;;;;;;;-142.75;36.16;75353.97;5091797;28;20073;-75
2021/05/13 11:54:55;;;;;;;;;;;;;;;-142.75;34.99;75405.13;5091231;28;19927;-75
2021/05/13 11:57:20;;;;;;;;;;;;;;;-142.75;34.91;75314.59;5090871;28;19916;-73
2021/05/13 11:59:49;;;;;;;;;;;;;;;-142.75;34.62;75287.06;5089973;28;19916;-75
2021/05/13 12:02:16;;;;;;;;;;;;;;;-142.75;35.13;75304.75;5091207;28;19924;-76
2021/05/13 12:04:41;;;;;;;;;;;;;;;-142.75;35.33;75233.91;5090937;28;19926;-75
2021/05/13 12:07:07;;;;;;;;;;;;;;;-142.75;35.71;75186.69;5090736;28;20006;-75
2021/05/13 12:09:33;;;;;;;;;;;;;;;-142.75;34.36;75190.63;5091018;28;20322;-76
2021/05/13 12:11:58;;;;;;;;;;;;;;;-142.75;34.42;75499.59;5088447;28;20019;-75
2021/05/13 12:14:27;;;;;;;;;;;;;;;-142.75;35.89;75609.78;5071143;28;19917;-76
2021/05/13 12:16:58;;;;;;;;;;;;;;;-142.75;38.42;75672.78;5070798;28;20349;-75
2021/05/13 12:19:24;;;;;;;;;;;;;;;-142.75;37.88;75714.09;5070589;28;19916;-76
2021/05/13 12:21:56;;;;;;;;;;;;;;;-142.75;38.01;75704.25;5070003;28;19947;-76
2021/05/13 12:24:42;;;;;;;;;;;;;;;-142.75;36.05;75664.91;5070976;28;19928;-76
2021/05/13 12:27:09;;;;;;;;;;;;;;;-142.75;38.09;75582.25;5071176;28;19916;-75
2021/05/13 12:29:34;;;;;;;;;;;;;;;-142.75;36.99;75540.91;5070558;28;19924;-76
2021/05/13 12:31:59;;;;;;;;;;;;;;;-142.75;35.65;75576.34;5069847;28;19966;-75
2021/05/13 12:34:31;;;;;;;;;;;;;;;-142.75;37.42;75560.59;5070784;28;19924;-76
2021/05/13 12:36:56;;;;;;;;;;;;;;;-142.75;36.89;75479.91;5070488;28;20377;-75